Time;durP1;ratioP1;P1;durP2;ratioP2;P2;SDS_P1;SDS_P2;PMS_P1;PMS_P2;Temp;Humidity;BMP_temperature;BMP_pressure;BME280_temperature;BME280_humidity;BME280_pressure;Samples;Min_cycle;Max_cycle;Signal;HPM_P1;HPM_P2
2023/04/27 00:02:12;;;;;;;4.30;3.90;;;15.10;47.90;;;;;;4953158;28;20188;-54
2023/04/27 00:04:37;;;;;;;6.00;4.00;;;15.10;47.90;;;;;;4948602;28;20567;-52
2023/04/27 00:07:03;;;;;;;4.83;4.00;;;15.10;47.90;;;;;;4951782;28;20443;-51
2023/04/27 00:09:28;;;;;;;4.23;3.87;;;14.90;48.20;;;;;;4949398;28;20207;-54
2023/04/27 00:11:54;;;;;;;3.90;3.60;;;14.80;48.40;;;;;;4955371;28;20680;-52
2023/04/27 00:14:20;;;;;;;4.37;4.00;;;14.80;48.60;;;;;;4955025;28;20196;-53
2023/04/27 00:16:46;;;;;;;5.57;4.13;;;14.70;48.90;;;;;;4953461;28;20357;-54
2023/04/27 00:19:12;;;;;;;4.27;3.87;;;14.70;49.00;;;;;;4945207;29;20201;-52
2023/04/27 00:21:38;;;;;;;5.23;4.30;;;14.80;48.80;;;;;;4945588;28;20551;-54
2023/04/27 00:24:04;;;;;;;3.60;3.33;;;14.80;48.80;;;;;;4958717;28;20494;-53
2023/04/27 00:26:30;;;;;;;5.53;3.93;;;14.80;48.70;;;;;;4959333;28;20476;-54
2023/04/27 00:28:55;;;;;;;5.20;3.90;;;14.80;48.80;;;;;;4948408;28;20942;-51
2023/04/27 00:31:21;;;;;;;12.00;4.53;;;14.80;48.90;;;;;;4960033;28;20238;-53
2023/04/27 00:33:47;;;;;;;8.20;4.70;;;14.80;49.00;;;;;;4973367;28;20191;-52
2023/04/27 00:36:12;;;;;;;4.40;3.60;;;14.80;48.90;;;;;;4951401;28;20659;-52
2023/04/27 00:38:38;;;;;;;8.73;3.60;;;14.70;49.00;;;;;;4952441;29;20192;-54
2023/04/27 00:41:05;;;;;;;5.73;3.60;;;14.70;49.20;;;;;;4946656;28;20652;-55
2023/04/27 00:43:31;;;;;;;5.00;3.80;;;14.70;49.20;;;;;;4939089;29;20205;-50
2023/04/27 00:45:58;;;;;;;7.33;4.70;;;14.80;49.30;;;;;;4942690;29;21237;-54
2023/04/27 00:48:24;;;;;;;5.00;4.57;;;14.70;49.40;;;;;;4937649;28;20448;-51
2023/04/27 00:50:50;;;;;;;6.30;4.00;;;14.70;49.30;;;;;;4946645;28;20495;-53
2023/04/27 00:53:16;;;;;;;3.97;3.60;;;14.60;49.60;;;;;;4947580;29;20485;-51
2023/04/27 00:55:42;;;;;;;5.13;4.00;;;14.70;49.80;;;;;;4946415;29;20781;-54
2023/04/27 00:58:08;;;;;;;4.93;4.20;;;14.70;49.60;;;;;;4942636;29;20532;-51
2023/04/27 01:00:37;;;;;;;4.60;4.20;;;14.80;49.50;;;;;;4962600;28;20204;-53
2023/04/27 01:03:03;;;;;;;7.30;3.67;;;14.70;49.50;;;;;;4951282;28;20200;-54
2023/04/27 01:05:29;;;;;;;6.17;3.93;;;14.70;49.50;;;;;;4949388;29;20535;-52
2023/04/27 01:07:55;;;;;;;8.20;3.90;;;14.70;49.60;;;;;;4945652;29;20192;-53
2023/04/27 01:10:20;;;;;;;9.90;4.33;;;14.60;49.60;;;;;;4950704;28;20479;-54
2023/04/27 01:12:46;;;;;;;4.90;4.00;;;14.60;49.60;;;;;;4949245;29;20216;-54
2023/04/27 01:15:12;;;;;;;4.27;3.77;;;14.60;49.90;;;;;;4939783;29;20653;-51
2023/04/27 01:17:37;;;;;;;5.63;4.13;;;14.40;50.30;;;;;;4945022;28;20256;-52
2023/04/27 01:20:06;;;;;;;4.90;4.37;;;14.40;50.30;;;;;;4950917;28;20200;-51
2023/04/27 01:22:31;;;;;;;4.47;3.90;;;14.40;50.40;;;;;;4944920;29;20204;-54
2023/04/27 01:24:57;;;;;;;4.13;3.50;;;14.30;50.40;;;;;;4943155;29;20443;-54
2023/04/27 01:27:23;;;;;;;6.23;3.97;;;14.10;50.80;;;;;;4950822;28;20195;-51
2023/04/27 01:29:48;;;;;;;4.53;4.13;;;14.20;50.80;;;;;;4951460;28;20624;-53
2023/04/27 01:32:14;;;;;;;5.80;3.80;;;14.20;50.60;;;;;;4953667;28;20228;-51
2023/04/27 01:34:40;;;;;;;7.73;4.03;;;14.40;50.50;;;;;;4948545;29;20199;-52
2023/04/27 01:37:05;;;;;;;8.20;4.43;;;14.40;50.20;;;;;;4949081;28;20231;-51
2023/04/27 01:39:31;;;;;;;7.10;4.50;;;14.40;50.20;;;;;;4947299;29;20208;-50
2023/04/27 01:41:57;;;;;;;4.37;3.80;;;14.40;50.10;;;;;;4947555;28;20199;-51
2023/04/27 01:44:23;;;;;;;6.30;3.90;;;14.30;50.10;;;;;;4953308;29;21675;-50
2023/04/27 01:46:49;;;;;;;4.77;4.03;;;14.20;50.50;;;;;;4947334;28;20195;-52
2023/04/27 01:49:15;;;;;;;4.70;3.70;;;14.20;50.60;;;;;;4940523;29;20443;-50
2023/04/27 01:51:40;;;;;;;4.00;3.67;;;13.90;51.20;;;;;;4956500;28;20487;-54
2023/04/27 01:54:06;;;;;;;6.00;4.53;;;14.10;51.30;;;;;;4944440;29;20540;-52
2023/04/27 01:56:32;;;;;;;4.30;4.00;;;14.10;51.00;;;;;;4952525;29;20552;-51
2023/04/27 01:58:57;;;;;;;6.33;4.10;;;14.20;50.90;;;;;;4954834;28;20211;-50
2023/04/27 02:01:23;;;;;;;3.77;3.47;;;14.00;51.30;;;;;;4953189;29;20195;-52
2023/04/27 02:03:48;;;;;;;4.73;4.23;;;14.00;51.40;;;;;;4958416;28;20195;-54
2023/04/27 02:06:14;;;;;;;4.87;4.47;;;14.10;51.10;;;;;;4952980;29;20192;-53
2023/04/27 02:08:40;;;;;;;6.43;4.10;;;14.10;50.90;;;;;;4951201;28;20193;-50
2023/04/27 02:11:05;;;;;;;8.87;4.57;;;14.10;50.70;;;;;;4953112;29;20654;-51
2023/04/27 02:13:31;;;;;;;5.13;3.80;;;14.00;50.80;;;;;;4953761;28;20196;-50
2023/04/27 02:15:56;;;;;;;4.60;3.77;;;14.00;50.80;;;;;;4955653;28;20204;-54
2023/04/27 02:18:23;;;;;;;6.67;3.90;;;14.10;50.60;;;;;;4951107;28;20222;-51
2023/04/27 02:20:48;;;;;;;5.10;4.30;;;14.10;50.50;;;;;;4950137;29;20208;-52
2023/04/27 02:23:14;;;;;;;5.63;4.03;;;14.10;50.50;;;;;;4952291;28;20447;-51
2023/04/27 02:25:45;;;;;;;4.07;3.73;;;14.10;50.60;;;;;;4953727;29;20207;-53
2023/04/27 02:28:12;;;;;;;4.90;3.97;;;14.00;50.90;;;;;;4955318;28;20250;-51
2023/04/27 02:30:37;;;;;;;7.47;4.40;;;14.00;51.00;;;;;;4955242;28;20474;-52
2023/04/27 02:33:03;;;;;;;6.17;3.80;;;14.00;51.20;;;;;;4954769;29;20423;-55
2023/04/27 02:35:31;;;;;;;4.27;3.87;;;13.90;51.40;;;;;;4955672;28;20235;-52
2023/04/27 02:37:56;;;;;;;5.23;4.43;;;13.90;51.50;;;;;;4949862;29;20448;-51
2023/04/27 02:40:22;;;;;;;7.43;3.97;;;13.90;51.50;;;;;;4951371;28;21074;-51
2023/04/27 02:42:48;;;;;;;5.13;4.10;;;13.80;51.60;;;;;;4954363;28;20235;-53
2023/04/27 02:45:13;;;;;;;9.90;4.10;;;13.60;51.90;;;;;;4953127;28;20248;-51
2023/04/27 02:47:39;;;;;;;5.23;4.13;;;13.70;52.00;;;;;;4954042;29;20215;-52
2023/04/27 02:50:05;;;;;;;5.50;4.33;;;13.70;52.00;;;;;;4949237;28;20227;-51
2023/04/27 02:52:30;;;;;;;5.17;4.50;;;13.70;51.90;;;;;;4954102;28;20235;-50
2023/04/27 02:54:56;;;;;;;4.80;3.77;;;13.70;51.90;;;;;;4953132;28;20444;-52
2023/04/27 02:57:22;;;;;;;4.40;4.00;;;13.70;52.10;;;;;;4956333;28;20193;-53
2023/04/27 02:59:47;;;;;;;5.93;4.10;;;13.60;52.40;;;;;;4954947;29;20262;-51
2023/04/27 03:02:13;;;;;;;4.17;3.43;;;13.60;52.50;;;;;;4950809;28;20207;-51
2023/04/27 03:04:39;;;;;;;4.63;4.20;;;13.70;52.40;;;;;;4952683;29;20287;-54
2023/04/27 03:07:05;;;;;;;4.93;4.43;;;13.70;52.30;;;;;;4948325;28;20203;-54
2023/04/27 03:09:30;;;;;;;6.63;5.13;;;13.70;52.30;;;;;;4959877;28;20245;-50
2023/04/27 03:11:56;;;;;;;4.50;3.80;;;13.80;52.20;;;;;;4951510;29;20979;-51
2023/04/27 03:14:22;;;;;;;5.47;4.97;;;13.50;52.60;;;;;;4944383;29;20207;-55
2023/04/27 03:16:47;;;;;;;4.87;4.47;;;13.30;53.70;;;;;;4951138;29;20220;-53
2023/04/27 03:19:13;;;;;;;8.10;6.20;;;13.30;53.40;;;;;;4940939;29;20935;-55
2023/04/27 03:21:39;;;;;;;4.57;3.40;;;13.40;53.50;;;;;;4950192;28;20845;-51
2023/04/27 03:24:05;;;;;;;6.90;5.43;;;13.50;53.30;;;;;;4955262;29;20231;-51
2023/04/27 03:26:30;;;;;;;5.90;4.40;;;13.50;53.20;;;;;;4951849;29;20207;-53
2023/04/27 03:28:56;;;;;;;6.20;4.00;;;13.50;53.20;;;;;;4949934;28;20204;-54
2023/04/27 03:31:21;;;;;;;5.60;5.03;;;13.50;53.30;;;;;;4952621;29;20243;-51
2023/04/27 03:33:47;;;;;;;5.23;4.30;;;13.60;53.20;;;;;;4952397;29;20196;-50
2023/04/27 03:36:12;;;;;;;6.10;4.47;;;13.60;52.90;;;;;;4950183;29;20243;-51
2023/04/27 03:38:38;;;;;;;4.47;4.07;;;13.60;52.80;;;;;;4949882;28;20200;-54
2023/04/27 03:41:04;;;;;;;5.50;4.07;;;13.60;52.80;;;;;;4945446;29;20208;-53
2023/04/27 03:43:29;;;;;;;5.90;3.97;;;13.70;52.80;;;;;;4951487;28;20255;-50
2023/04/27 03:45:55;;;;;;;4.80;3.60;;;13.70;52.80;;;;;;4942095;28;20189;-52
2023/04/27 03:48:21;;;;;;;4.57;4.17;;;13.70;52.80;;;;;;4946323;29;20254;-52
2023/04/27 03:50:47;;;;;;;6.60;4.40;;;13.70;52.80;;;;;;4952748;28;20581;-51
2023/04/27 03:53:13;;;;;;;4.40;4.00;;;13.40;52.60;;;;;;4948655;28;20196;-54
2023/04/27 03:55:39;;;;;;;9.03;4.70;;;13.20;53.80;;;;;;4949341;28;20200;-52
2023/04/27 03:58:05;;;;;;;5.13;4.63;;;13.10;54.00;;;;;;4938117;28;20598;-54
2023/04/27 04:00:32;;;;;;;7.03;4.17;;;13.10;53.90;;;;;;4951989;28;20531;-53
2023/04/27 04:02:57;;;;;;;6.70;4.43;;;13.00;54.20;;;;;;4948530;29;20196;-51
2023/04/27 04:05:23;;;;;;;7.93;4.77;;;13.00;54.50;;;;;;4944305;28;20487;-51
2023/04/27 04:07:49;;;;;;;7.17;4.87;;;12.90;54.50;;;;;;4948036;28;20574;-52
2023/04/27 04:10:14;;;;;;;4.57;4.17;;;12.90;54.70;;;;;;4950786;28;20200;-53
2023/04/27 04:12:40;;;;;;;9.77;5.03;;;12.80;55.00;;;;;;4953016;29;20305;-51
2023/04/27 04:15:06;;;;;;;7.17;4.30;;;13.00;54.80;;;;;;4953489;28;20198;-51
2023/04/27 04:17:32;;;;;;;6.63;4.20;;;13.10;54.50;;;;;;4942933;28;20192;-51
2023/04/27 04:20:00;;;;;;;5.40;4.77;;;13.10;54.40;;;;;;4951552;28;20453;-54
2023/04/27 04:22:25;;;;;;;7.80;4.60;;;13.10;54.40;;;;;;4941261;29;20865;-52
2023/04/27 04:24:51;;;;;;;6.60;4.47;;;13.10;54.30;;;;;;4940092;28;20435;-51
2023/04/27 04:27:17;;;;;;;6.23;5.53;;;13.10;54.30;;;;;;4952416;28;20219;-51
2023/04/27 04:29:42;;;;;;;6.83;4.50;;;13.10;54.10;;;;;;4952460;28;20275;-51
2023/04/27 04:32:08;;;;;;;6.60;3.90;;;13.20;54.10;;;;;;4952519;28;20244;-50
2023/04/27 04:34:37;;;;;;;7.43;5.00;;;12.90;54.10;;;;;;4951481;28;20199;-50
2023/04/27 04:37:03;;;;;;;6.77;4.57;;;13.00;54.50;;;;;;4949017;28;20216;-52
2023/04/27 04:39:32;;;;;;;5.07;4.23;;;13.10;54.10;;;;;;4934654;29;20479;-52
2023/04/27 04:41:57;;;;;;;4.20;3.80;;;13.20;53.80;;;;;;4935815;29;20424;-53
2023/04/27 04:44:23;;;;;;;4.70;4.17;;;13.00;54.00;;;;;;4952818;29;20750;-53
2023/04/27 04:46:49;;;;;;;5.57;3.93;;;12.80;54.20;;;;;;4952743;29;20200;-51
2023/04/27 04:49:15;;;;;;;5.27;4.50;;;12.80;54.50;;;;;;4951815;29;20192;-50
2023/04/27 04:51:42;;;;;;;5.27;4.07;;;12.90;54.30;;;;;;4959971;28;20577;-51
2023/04/27 04:54:08;;;;;;;11.40;4.93;;;13.10;54.10;;;;;;4944294;29;20205;-53
2023/04/27 04:56:34;;;;;;;6.23;4.30;;;12.60;54.50;;;;;;4944791;28;20448;-53
2023/04/27 04:59:00;;;;;;;5.17;4.67;;;12.30;55.40;;;;;;4952086;28;20207;-54
2023/04/27 05:01:27;;;;;;;5.30;4.80;;;11.90;56.50;;;;;;4948321;28;20526;-53
2023/04/27 05:03:52;;;;;;;6.70;4.33;;;12.00;57.20;;;;;;4953639;29;20923;-51
2023/04/27 05:06:18;;;;;;;4.60;4.20;;;12.20;56.30;;;;;;4952692;28;20247;-51
2023/04/27 05:08:44;;;;;;;5.80;5.17;;;12.40;56.10;;;;;;4951197;28;20234;-52
2023/04/27 05:11:10;;;;;;;5.70;4.90;;;12.30;56.20;;;;;;4948753;29;20605;-51
2023/04/27 05:13:37;;;;;;;8.10;5.70;;;12.10;56.10;;;;;;4950354;29;20243;-54
2023/04/27 05:16:04;;;;;;;6.70;4.80;;;11.80;57.00;;;;;;4954836;28;20943;-53
2023/04/27 05:18:30;;;;;;;10.07;5.33;;;11.70;57.70;;;;;;4959010;29;20492;-55
2023/04/27 05:20:56;;;;;;;8.67;4.70;;;11.80;57.50;;;;;;4958378;28;20916;-55
2023/04/27 05:23:21;;;;;;;4.73;4.20;;;11.90;57.30;;;;;;4954375;28;20673;-51
2023/04/27 05:25:47;;;;;;;6.43;4.67;;;11.90;57.90;;;;;;4959405;28;20270;-53
2023/04/27 05:28:12;;;;;;;7.90;4.80;;;12.30;58.40;;;;;;4957333;29;20215;-51
2023/04/27 05:30:38;;;;;;;8.73;4.93;;;12.80;57.50;;;;;;4957999;28;20223;-53
2023/04/27 05:33:04;;;;;;;11.13;4.73;;;13.10;56.70;;;;;;4956521;28;20320;-53
2023/04/27 05:35:30;;;;;;;7.13;4.70;;;13.20;55.20;;;;;;4959447;28;20270;-54
2023/04/27 05:37:56;;;;;;;6.20;4.47;;;13.60;55.50;;;;;;4949646;29;20495;-50
2023/04/27 05:40:22;;;;;;;6.20;5.13;;;13.90;53.60;;;;;;4953543;28;20459;-54
2023/04/27 05:42:48;;;;;;;5.80;5.20;;;13.90;53.10;;;;;;4950685;28;20492;-54
2023/04/27 05:45:14;;;;;;;4.77;3.87;;;14.10;52.10;;;;;;4954079;28;20199;-53
2023/04/27 05:47:40;;;;;;;4.73;4.23;;;14.10;51.70;;;;;;4951378;28;20970;-53
2023/04/27 05:50:06;;;;;;;4.83;4.10;;;14.20;52.20;;;;;;4943008;28;20231;-54
2023/04/27 05:52:32;;;;;;;5.97;4.43;;;14.40;51.60;;;;;;4958231;28;20254;-54
2023/04/27 05:54:57;;;;;;;5.33;4.27;;;14.60;51.20;;;;;;4950218;28;20455;-53
2023/04/27 05:57:24;;;;;;;5.03;4.40;;;14.50;50.90;;;;;;4953608;28;20234;-54
2023/04/27 05:59:50;;;;;;;5.00;4.50;;;14.20;50.40;;;;;;4950184;28;20251;-53
2023/04/27 06:02:16;;;;;;;5.27;4.47;;;14.40;51.50;;;;;;4957814;28;20451;-49
2023/04/27 06:04:42;;;;;;;7.77;5.23;;;14.60;51.30;;;;;;4954657;29;20192;-53
2023/04/27 06:07:11;;;;;;;7.47;4.20;;;14.80;50.90;;;;;;4955996;28;20454;-50
2023/04/27 06:09:37;;;;;;;7.57;5.20;;;14.90;50.50;;;;;;4948250;28;20192;-52
2023/04/27 06:12:04;;;;;;;6.13;4.33;;;14.90;50.20;;;;;;4945197;28;20475;-52
2023/04/27 06:14:30;;;;;;;5.70;5.00;;;14.90;50.00;;;;;;4950873;28;20459;-54
2023/04/27 06:16:56;;;;;;;5.50;5.00;;;15.00;49.80;;;;;;4956156;28;20505;-53
2023/04/27 06:19:22;;;;;;;5.23;4.30;;;15.00;49.80;;;;;;4950718;28;20451;-51
2023/04/27 06:21:47;;;;;;;6.43;4.40;;;15.20;49.70;;;;;;4955553;28;20259;-54
2023/04/27 06:24:13;;;;;;;4.77;3.80;;;15.20;48.90;;;;;;4947618;28;20200;-51
2023/04/27 06:26:39;;;;;;;6.80;4.60;;;15.30;49.40;;;;;;4948051;28;20204;-53
2023/04/27 06:29:06;;;;;;;6.50;4.50;;;15.20;48.60;;;;;;4954062;28;20200;-54
2023/04/27 06:31:35;;;;;;;4.50;4.10;;;15.20;48.80;;;;;;4944379;28;20240;-51
2023/04/27 06:34:01;;;;;;;12.33;4.83;;;15.10;49.40;;;;;;4943464;28;20440;-51
2023/04/27 06:36:30;;;;;;;9.03;4.90;;;15.10;49.30;;;;;;4940174;28;20502;-53
2023/04/27 06:38:56;;;;;;;5.60;5.00;;;15.20;48.80;;;;;;4951365;28;20199;-55
2023/04/27 06:41:23;;;;;;;5.53;4.13;;;15.20;49.10;;;;;;4946997;28;20538;-50
2023/04/27 06:43:49;;;;;;;5.53;4.87;;;15.50;49.40;;;;;;4948667;28;20441;-49
2023/04/27 06:46:17;;;;;;;4.83;3.97;;;15.80;49.00;;;;;;4945046;28;20459;-54
2023/04/27 06:48:43;;;;;;;6.20;5.27;;;16.00;48.50;;;;;;4948415;28;20204;-52
2023/04/27 06:51:08;;;;;;;4.77;4.03;;;16.10;47.90;;;;;;4942810;28;20494;-53
2023/04/27 06:53:34;;;;;;;5.77;4.40;;;16.30;47.90;;;;;;4941129;29;20234;-50
2023/04/27 06:56:00;;;;;;;5.33;4.37;;;16.50;47.70;;;;;;4946734;28;20279;-50
2023/04/27 06:58:26;;;;;;;7.73;4.50;;;16.60;47.20;;;;;;4949412;28;20199;-50
2023/04/27 07:00:52;;;;;;;5.50;4.30;;;16.70;47.00;;;;;;4965663;28;20442;-53
2023/04/27 07:03:18;;;;;;;4.40;3.97;;;16.80;46.60;;;;;;4950071;28;20286;-53
2023/04/27 07:05:44;;;;;;;5.17;4.13;;;16.90;46.20;;;;;;4941530;28;20479;-50
2023/04/27 07:08:10;;;;;;;7.20;4.93;;;16.80;46.00;;;;;;4946881;28;20444;-52
2023/04/27 07:10:35;;;;;;;5.13;4.13;;;17.00;46.10;;;;;;4941676;28;20283;-53
2023/04/27 07:13:01;;;;;;;5.10;4.33;;;16.80;44.90;;;;;;4950875;28;20671;-53
2023/04/27 07:15:27;;;;;;;4.10;3.63;;;16.40;45.60;;;;;;4942760;28;20203;-51
2023/04/27 07:17:55;;;;;;;5.07;4.57;;;16.60;45.90;;;;;;4957195;28;20702;-54
2023/04/27 07:20:21;;;;;;;6.77;4.10;;;16.80;45.70;;;;;;4959873;28;20208;-49
2023/04/27 07:22:47;;;;;;;6.77;3.93;;;16.90;45.40;;;;;;4950567;28;20451;-49
2023/04/27 07:25:13;;;;;;;3.80;3.47;;;17.10;45.20;;;;;;4944286;28;20568;-52
2023/04/27 07:27:38;;;;;;;3.97;3.57;;;17.30;45.00;;;;;;4954196;28;20191;-51
2023/04/27 07:30:07;;;;;;;5.27;4.40;;;17.40;44.50;;;;;;4972669;28;20289;-53
2023/04/27 07:32:33;;;;;;;6.50;4.00;;;17.60;44.40;;;;;;4950958;28;20627;-50
2023/04/27 07:34:58;;;;;;;4.47;4.03;;;17.60;44.20;;;;;;4953294;28;20628;-50
2023/04/27 07:37:25;;;;;;;4.80;4.30;;;17.60;44.20;;;;;;4945188;28;21331;-50
2023/04/27 07:39:51;;;;;;;4.97;4.13;;;17.70;43.90;;;;;;4951194;28;20200;-49
2023/04/27 07:42:18;;;;;;;5.20;3.73;;;17.80;43.90;;;;;;4944294;28;20814;-48
2023/04/27 07:44:43;;;;;;;5.70;3.40;;;17.90;43.00;;;;;;4941772;29;20454;-49
2023/04/27 07:47:09;;;;;;;3.30;3.00;;;17.90;42.80;;;;;;4939950;28;20451;-47
2023/04/27 07:49:36;;;;;;;4.80;4.00;;;18.10;42.70;;;;;;4944491;28;20216;-52
2023/04/27 07:52:03;;;;;;;4.23;3.83;;;18.20;43.00;;;;;;4941408;28;20495;-48
2023/04/27 07:54:29;;;;;;;5.30;3.73;;;18.40;42.10;;;;;;4949179;28;20506;-48
2023/04/27 07:56:54;;;;;;;4.60;4.20;;;18.70;42.00;;;;;;4948686;28;20451;-48
2023/04/27 07:59:20;;;;;;;4.67;3.87;;;18.90;41.40;;;;;;4949200;29;20200;-47
2023/04/27 08:01:46;;;;;;;4.77;4.00;;;19.10;40.60;;;;;;4950166;28;20576;-49
2023/04/27 08:04:12;;;;;;;6.07;4.30;;;19.20;40.10;;;;;;4950852;28;20572;-53
2023/04/27 08:06:38;;;;;;;7.10;4.47;;;19.20;40.10;;;;;;4949651;29;20204;-48
2023/04/27 08:09:04;;;;;;;5.97;3.93;;;19.10;41.00;;;;;;4945183;28;20460;-48
2023/04/27 08:11:30;;;;;;;6.10;4.03;;;19.30;40.00;;;;;;4943362;28;20498;-48
2023/04/27 08:13:56;;;;;;;5.80;3.70;;;19.60;39.80;;;;;;4949467;29;20255;-48
2023/04/27 08:16:21;;;;;;;4.10;3.67;;;19.70;39.20;;;;;;4965452;28;20431;-47
2023/04/27 08:18:48;;;;;;;4.50;3.83;;;19.50;39.10;;;;;;4949275;28;20570;-53
2023/04/27 08:21:14;;;;;;;4.53;3.80;;;19.10;40.00;;;;;;4945735;29;20600;-51
2023/04/27 08:23:39;;;;;;;3.83;3.50;;;19.30;39.70;;;;;;4938660;28;20445;-52
2023/04/27 08:26:05;;;;;;;6.23;3.60;;;19.60;39.50;;;;;;4941858;28;20458;-53
2023/04/27 08:28:30;;;;;;;5.70;4.03;;;20.00;38.80;;;;;;4943887;28;20202;-52
2023/04/27 08:30:56;;;;;;;4.97;3.63;;;20.10;38.60;;;;;;4945128;28;20638;-51
2023/04/27 08:33:22;;;;;;;7.50;4.23;;;20.30;37.70;;;;;;4938983;28;20204;-51
2023/04/27 08:35:47;;;;;;;6.50;3.87;;;20.60;37.20;;;;;;4943287;28;20775;-53
2023/04/27 08:38:13;;;;;;;5.60;3.90;;;20.90;36.80;;;;;;4942553;28;20216;-52
2023/04/27 08:40:42;;;;;;;4.53;3.43;;;21.10;36.00;;;;;;4954713;28;20721;-50
2023/04/27 08:43:08;;;;;;;3.70;3.20;;;21.20;35.50;;;;;;4952927;28;20223;-51
2023/04/27 08:45:34;;;;;;;6.87;3.83;;;21.30;36.10;;;;;;4943624;28;20443;-52
2023/04/27 08:48:00;;;;;;;5.10;3.63;;;21.50;35.70;;;;;;4946497;28;20193;-51
2023/04/27 08:50:26;;;;;;;4.30;3.80;;;21.50;35.40;;;;;;4950125;28;20644;-53
2023/04/27 08:52:52;;;;;;;3.20;2.90;;;21.70;35.40;;;;;;4947680;28;20534;-53
2023/04/27 08:55:18;;;;;;;3.00;2.80;;;22.00;35.10;;;;;;4943347;28;20451;-53
2023/04/27 08:57:55;;;;;;;5.77;3.30;;;22.20;35.20;;;;;;4947158;28;20460;-54
2023/04/27 09:00:20;;;;;;;5.00;3.53;;;22.30;34.70;;;;;;4943728;28;20969;-50
2023/04/27 09:02:47;;;;;;;7.57;3.70;;;22.30;33.40;;;;;;4949100;28;20451;-53
2023/04/27 09:05:20;;;;;;;5.93;3.40;;;;;;;;;;4943402;28;20272;-53
2023/04/27 09:08:15;;;;;;;5.27;3.90;;;22.70;33.00;;;;;;4950029;29;20538;-52
2023/04/27 09:10:48;;;;;;;3.90;2.93;;;22.80;33.90;;;;;;4929531;28;20512;-52
2023/04/27 09:13:14;;;;;;;4.67;3.27;;;23.00;34.50;;;;;;4939841;28;20455;-54
2023/04/27 09:15:45;;;;;;;5.83;3.07;;;23.10;32.70;;;;;;4942418;28;20447;-50
2023/04/27 09:18:18;;;;;;;3.07;2.70;;;23.00;32.40;;;;;;4951151;28;20450;-52
2023/04/27 09:20:46;;;;;;;3.93;2.77;;;23.20;32.00;;;;;;4951270;28;20439;-50
2023/04/27 09:23:27;;;;;;;6.60;3.27;;;23.30;31.30;;;;;;4941117;28;20531;-50
2023/04/27 09:25:55;;;;;;;3.13;2.90;;;23.40;31.00;;;;;;4945033;28;20439;-53
2023/04/27 09:28:21;;;;;;;3.83;3.20;;;23.50;30.50;;;;;;4952546;29;20432;-52
2023/04/27 09:30:53;;;;;;;7.27;4.30;;;23.50;31.50;;;;;;4949538;28;20562;-53
2023/04/27 09:33:35;;;;;;;4.30;3.40;;;23.70;31.20;;;;;;4950846;28;20447;-53
2023/04/27 09:36:05;;;;;;;3.77;3.37;;;23.80;31.80;;;;;;4939895;29;21011;-52
2023/04/27 09:38:31;;;;;;;5.17;3.50;;;23.90;31.10;;;;;;4945779;29;21143;-54
2023/04/27 09:40:59;;;;;;;3.90;3.50;;;24.00;30.20;;;;;;4942313;28;20483;-53
2023/04/27 09:43:27;;;;;;;4.00;3.27;;;24.00;30.00;;;;;;4947533;28;20868;-50
2023/04/27 09:45:53;;;;;;;4.60;3.40;;;24.00;30.40;;;;;;4937128;28;20466;-49
2023/04/27 09:48:20;;;;;;;4.90;3.30;;;24.10;30.70;;;;;;4937116;28;20449;-50
2023/04/27 09:50:48;;;;;;;4.83;3.80;;;24.30;31.30;;;;;;4946382;28;20476;-49
2023/04/27 09:53:16;;;;;;;2.90;2.60;;;24.50;31.10;;;;;;4941835;29;21057;-53
2023/04/27 09:55:54;;;;;;;4.33;3.50;;;24.50;31.50;;;;;;4943024;29;20443;-50
2023/04/27 09:58:29;;;;;;;6.17;2.90;;;24.60;29.80;;;;;;4944367;28;20551;-49
2023/04/27 10:01:10;;;;;;;7.63;3.87;;;24.80;30.60;;;;;;4946842;28;20494;-52
2023/04/27 10:04:03;;;;;;;5.80;3.50;;;24.90;29.30;;;;;;4945725;28;20538;-49
2023/04/27 10:06:55;;;;;;;3.43;3.13;;;24.80;29.20;;;;;;4949885;28;20479;-53
2023/04/27 10:09:24;;;;;;;4.97;3.57;;;24.70;29.30;;;;;;4947988;28;20542;-54
2023/04/27 10:11:51;;;;;;;4.50;3.87;;;24.60;29.30;;;;;;4940804;29;20624;-53
2023/04/27 10:14:20;;;;;;;6.97;4.33;;;24.60;28.90;;;;;;4950838;28;20447;-50
2023/04/27 10:16:54;;;;;;;5.00;4.00;;;24.50;29.10;;;;;;4948309;28;20447;-50
2023/04/27 10:19:21;;;;;;;5.07;3.97;;;24.50;29.00;;;;;;4948040;28;20443;-52
2023/04/27 10:22:02;;;;;;;4.53;3.40;;;24.60;29.60;;;;;;4945036;28;20457;-53
2023/04/27 10:24:37;;;;;;;3.83;3.40;;;24.60;28.80;;;;;;4948563;28;20978;-50
2023/04/27 10:27:10;;;;;;;9.00;4.70;;;24.70;28.60;;;;;;4944498;29;20462;-52
2023/04/27 10:29:40;;;;;;;7.77;3.87;;;24.90;28.60;;;;;;4946035;29;20451;-51
2023/04/27 10:32:33;;;;;;;4.40;3.83;;;24.90;29.40;;;;;;4940247;28;20487;-52
2023/04/27 10:35:07;;;;;;;5.13;3.47;;;25.10;29.10;;;;;;4948623;28;20493;-52
2023/04/27 10:37:41;;;;;;;4.40;3.67;;;25.40;30.10;;;;;;4948309;28;20463;-52
2023/04/27 10:40:09;;;;;;;5.23;3.70;;;25.70;30.00;;;;;;4952242;28;20455;-49
2023/04/27 10:42:35;;;;;;;4.40;3.17;;;25.90;30.00;;;;;;4945374;28;20444;-52
2023/04/27 10:45:01;;;;;;;6.30;3.20;;;26.20;29.40;;;;;;4953023;29;20447;-52
2023/04/27 10:47:39;;;;;;;3.40;2.60;;;26.50;30.00;;;;;;4946651;29;20204;-49
2023/04/27 10:50:07;;;;;;;3.30;2.97;;;26.90;30.10;;;;;;4942851;28;20522;-52
2023/04/27 10:52:32;;;;;;;4.20;3.37;;;27.10;28.90;;;;;;4959606;28;20499;-49
2023/04/27 10:55:11;;;;;;;5.20;4.17;;;27.20;29.00;;;;;;4941778;28;20514;-49
2023/04/27 10:57:52;;;;;;;5.60;3.40;;;27.30;27.00;;;;;;4948612;29;20204;-49
2023/04/27 11:00:30;;;;;;;6.00;3.77;;;27.30;28.90;;;;;;4951379;28;20447;-50
2023/04/27 11:03:08;;;;;;;4.10;2.83;;;27.50;28.10;;;;;;4948081;29;20502;-49
2023/04/27 11:05:34;;;;;;;4.00;3.57;;;27.50;29.10;;;;;;4944936;28;20447;-51
2023/04/27 11:08:20;;;;;;;6.60;4.07;;;27.70;29.10;;;;;;4952769;28;20435;-53
2023/04/27 11:10:50;;;;;;;4.07;3.33;;;27.90;28.10;;;;;;4935924;29;20547;-53
2023/04/27 11:13:22;;;;;;;5.80;3.90;;;28.00;26.90;;;;;;4957353;28;20502;-52
2023/04/27 11:15:58;;;;;;;5.50;4.20;;;27.90;27.50;;;;;;4951309;28;20448;-50
2023/04/27 11:18:31;;;;;;;8.60;4.47;;;27.80;27.00;;;;;;4948870;28;21049;-50
2023/04/27 11:21:12;;;;;;;4.40;4.00;;;27.80;27.50;;;;;;4940093;28;20457;-53
2023/04/27 11:23:38;;;;;;;6.53;4.23;;;27.80;27.30;;;;;;4952452;29;20447;-52
2023/04/27 11:26:31;;;;;;;8.00;4.40;;;27.90;27.50;;;;;;4947437;28;20504;-51
2023/04/27 11:29:11;;;;;;;4.63;4.00;;;27.90;28.00;;;;;;4947425;28;20556;-53
2023/04/27 11:31:46;;;;;;;6.17;4.70;;;27.80;27.60;;;;;;4950022;28;20497;-51
2023/04/27 11:34:22;;;;;;;5.80;4.63;;;28.00;26.80;;;;;;4946710;29;20482;-51
2023/04/27 11:37:02;;;;;;;10.50;4.50;;;28.10;26.90;;;;;;4943859;28;21030;-50
2023/04/27 11:39:35;;;;;;;7.23;4.93;;;28.20;27.80;;;;;;4944035;28;20444;-53
2023/04/27 11:42:24;;;;;;;4.53;3.83;;;28.00;26.70;;;;;;4942352;28;20459;-54
2023/04/27 11:44:53;;;;;;;5.77;4.60;;;28.20;27.30;;;;;;4945612;28;20463;-50
2023/04/27 11:47:20;;;;;;;6.37;4.83;;;28.30;27.60;;;;;;4953833;28;20479;-50
2023/04/27 11:49:47;;;;;;;4.30;3.90;;;28.30;27.90;;;;;;4949241;28;20951;-53
2023/04/27 11:52:12;;;;;;;7.70;5.07;;;28.40;28.00;;;;;;4953811;28;20501;-52
2023/04/27 11:54:38;;;;;;;5.10;4.53;;;28.40;27.80;;;;;;4950274;28;20996;-50
2023/04/27 11:57:04;;;;;;;4.60;4.03;;;28.40;27.10;;;;;;4962508;28;20191;-50
2023/04/27 11:59:30;;;;;;;5.27;4.77;;;28.40;28.50;;;;;;4939936;28;20199;-50
2023/04/27 12:01:56;;;;;;;6.10;5.30;;;28.30;28.30;;;;;;4946264;28;20448;-52
2023/04/27 12:04:22;;;;;;;5.23;4.73;;;28.10;27.90;;;;;;4941354;28;20474;-50
2023/04/27 12:06:47;;;;;;;6.37;5.07;;;28.10;28.20;;;;;;4938522;28;20578;-53
2023/04/27 12:09:13;;;;;;;6.70;5.73;;;28.10;27.70;;;;;;4953109;28;20224;-54
2023/04/27 12:11:38;;;;;;;5.23;4.43;;;28.00;28.30;;;;;;4951552;28;20651;-50
2023/04/27 12:14:04;;;;;;;5.43;4.43;;;27.80;29.50;;;;;;4937570;28;20626;-50
2023/04/27 12:16:30;;;;;;;4.80;4.30;;;28.00;28.00;;;;;;4951379;28;20196;-50
2023/04/27 12:18:55;;;;;;;7.43;5.43;;;28.10;27.60;;;;;;4953172;29;20644;-51
2023/04/27 12:21:21;;;;;;;6.63;5.57;;;28.10;28.10;;;;;;4953299;28;20195;-50
2023/04/27 12:23:46;;;;;;;8.73;5.93;;;28.10;28.00;;;;;;4951389;28;20644;-50
2023/04/27 12:26:12;;;;;;;7.00;5.87;;;28.20;28.70;;;;;;4945764;28;20188;-50
2023/04/27 12:28:38;;;;;;;6.67;5.97;;;28.20;28.50;;;;;;4941445;28;20197;-53
2023/04/27 12:31:04;;;;;;;6.80;5.07;;;28.30;27.10;;;;;;4943130;28;20511;-50
2023/04/27 12:33:31;;;;;;;8.63;6.53;;;28.20;27.50;;;;;;4938452;28;20196;-50
2023/04/27 12:35:56;;;;;;;7.60;6.87;;;28.20;27.20;;;;;;4948774;28;20491;-49
2023/04/27 12:38:22;;;;;;;7.23;5.73;;;28.20;26.70;;;;;;4943715;28;20470;-52
2023/04/27 12:40:48;;;;;;;8.03;5.00;;;28.00;27.10;;;;;;4944128;28;20191;-50
2023/04/27 12:43:14;;;;;;;6.50;5.73;;;28.20;28.20;;;;;;4942867;28;20917;-51
2023/04/27 12:45:40;;;;;;;15.13;5.90;;;28.20;28.40;;;;;;4952293;28;20443;-53
2023/04/27 12:48:08;;;;;;;7.17;5.83;;;28.40;27.10;;;;;;4948599;28;20912;-52
2023/04/27 12:50:36;;;;;;;10.17;6.23;;;28.30;26.30;;;;;;4951545;28;20200;-53